createdAt,value
2023-08-15T00:01:33.965Z,3.15
2023-08-15T00:04:03.291Z,3.55
2023-08-15T00:06:31.229Z,3.25
2023-08-15T00:09:02.103Z,3.50
2023-08-15T00:11:29.989Z,3.38
2023-08-15T00:13:58.310Z,3.47
2023-08-15T00:16:26.580Z,3.35
2023-08-15T00:18:54.589Z,4.47
2023-08-15T00:21:23.885Z,4.07
2023-08-15T00:23:52.174Z,3.72
2023-08-15T00:26:20.176Z,3.72
2023-08-15T00:28:48.073Z,3.20
2023-08-15T00:31:16.006Z,3.63
2023-08-15T00:33:43.897Z,2.72
2023-08-15T00:36:11.742Z,3.25
2023-08-15T00:38:40.952Z,2.88
2023-08-15T00:41:09.009Z,2.58
2023-08-15T00:43:37.058Z,2.75
2023-08-15T00:46:07.806Z,2.50
2023-08-15T00:48:37.041Z,2.03
2023-08-15T00:51:05.212Z,2.10
2023-08-15T00:53:36.158Z,2.33
2023-08-15T00:56:05.917Z,2.50
2023-08-15T00:58:33.998Z,2.20
2023-08-15T01:01:02.175Z,2.40
2023-08-15T01:03:30.492Z,2.45
2023-08-15T01:05:58.859Z,2.80
2023-08-15T01:08:26.813Z,2.70
2023-08-15T01:10:54.717Z,2.92
2023-08-15T01:13:29.912Z,3.13
2023-08-15T01:15:58.204Z,2.35
2023-08-15T01:18:31.158Z,2.00
2023-08-15T01:21:00.496Z,2.20
2023-08-15T01:23:42.821Z,2.20
2023-08-15T01:26:10.802Z,2.90
2023-08-15T01:28:39.972Z,2.80
2023-08-15T01:31:15.495Z,2.42
2023-08-15T01:33:50.213Z,2.78
2023-08-15T01:36:24.980Z,2.70
2023-08-15T01:38:58.079Z,2.80
2023-08-15T01:41:27.514Z,2.40
2023-08-15T01:43:56.670Z,2.38
2023-08-15T01:46:24.687Z,2.45
2023-08-15T01:48:52.632Z,2.45
2023-08-15T01:51:20.494Z,2.30
2023-08-15T01:53:48.458Z,2.20
2023-08-15T01:56:17.687Z,2.50
2023-08-15T01:58:45.514Z,2.60
2023-08-15T02:01:13.838Z,2.47
2023-08-15T02:03:50.594Z,2.42
2023-08-15T02:06:18.432Z,2.53
2023-08-15T02:08:46.346Z,2.25
2023-08-15T02:11:14.258Z,2.50
2023-08-15T02:13:43.628Z,2.53
2023-08-15T02:16:11.552Z,2.65
2023-08-15T02:18:42.088Z,2.80
2023-08-15T02:21:10.409Z,2.50
2023-08-15T02:23:38.356Z,2.60
2023-08-15T02:26:06.416Z,2.90
2023-08-15T02:28:34.407Z,2.92
2023-08-15T02:31:06.125Z,3.28
2023-08-15T02:33:34.182Z,2.78
2023-08-15T02:36:07.550Z,2.20
2023-08-15T02:38:36.004Z,2.42
2023-08-15T02:41:04.233Z,2.58
2023-08-15T02:43:32.250Z,2.42
2023-08-15T02:46:00.178Z,2.88
2023-08-15T02:48:29.390Z,3.10
2023-08-15T02:50:57.333Z,3.28
2023-08-15T02:53:25.240Z,3.60
2023-08-15T02:55:53.252Z,3.25
2023-08-15T02:58:21.252Z,3.47
2023-08-15T03:00:49.261Z,3.50
2023-08-15T03:03:17.272Z,3.65
2023-08-15T03:05:46.585Z,3.60
2023-08-15T03:08:14.423Z,3.28
2023-08-15T03:10:43.706Z,2.90
2023-08-15T03:13:11.563Z,3.40
2023-08-15T03:15:39.894Z,3.70
2023-08-15T03:18:08.117Z,3.08
2023-08-15T03:20:36.284Z,4.00
2023-08-15T03:23:06.034Z,3.50
2023-08-15T03:25:33.754Z,3.97
2023-08-15T03:28:01.518Z,3.30
2023-08-15T03:30:29.473Z,3.47
2023-08-15T03:32:57.274Z,3.40
2023-08-15T03:35:25.000Z,3.63
2023-08-15T03:37:52.764Z,3.17
2023-08-15T03:40:21.819Z,4.28
2023-08-15T03:42:49.617Z,3.17
2023-08-15T03:45:17.475Z,3.65
2023-08-15T03:47:45.275Z,3.78
2023-08-15T03:50:12.980Z,4.13
2023-08-15T03:52:40.712Z,4.07
2023-08-15T03:55:08.817Z,4.45
2023-08-15T03:57:38.003Z,3.88
2023-08-15T04:00:07.775Z,3.90
2023-08-15T04:02:35.707Z,4.53
2023-08-15T04:05:07.813Z,4.22
2023-08-15T04:07:35.710Z,4.43
2023-08-15T04:10:03.439Z,5.20
2023-08-15T04:12:31.228Z,4.45
2023-08-15T04:15:00.527Z,4.45
2023-08-15T04:17:28.407Z,4.15
2023-08-15T04:19:56.248Z,3.63
2023-08-15T04:22:24.093Z,3.50
2023-08-15T04:24:51.828Z,3.10
2023-08-15T04:27:19.881Z,3.50
2023-08-15T04:29:48.057Z,4.15
2023-08-15T04:32:17.158Z,3.83
2023-08-15T04:34:44.915Z,4.35
2023-08-15T04:37:12.782Z,4.07
2023-08-15T04:39:40.744Z,4.50
2023-08-15T04:42:08.611Z,4.25
2023-08-15T04:44:36.344Z,5.18
2023-08-15T04:47:05.352Z,4.82
2023-08-15T04:49:35.172Z,3.58
2023-08-15T04:52:02.925Z,4.40
2023-08-15T04:54:30.656Z,5.43
2023-08-15T04:56:58.409Z,5.25
2023-08-15T04:59:26.153Z,3.85
2023-08-15T05:01:54.110Z,4.35
2023-08-15T05:04:21.850Z,5.03
2023-08-15T05:06:50.908Z,4.45
2023-08-15T05:09:19.660Z,5.10
2023-08-15T05:11:47.847Z,5.05
2023-08-15T05:14:16.273Z,4.90
2023-08-15T05:16:44.008Z,6.07
2023-08-15T05:19:11.750Z,6.53
2023-08-15T05:21:39.660Z,6.28
2023-08-15T05:24:09.307Z,6.07
2023-08-15T05:26:37.039Z,7.50
2023-08-15T05:29:05.185Z,7.40
2023-08-15T05:31:32.950Z,5.75
2023-08-15T05:34:00.709Z,5.85
2023-08-15T05:36:28.450Z,5.60
2023-08-15T05:38:56.236Z,5.78
2023-08-15T05:41:25.310Z,5.32
2023-08-15T05:43:53.040Z,4.55
2023-08-15T05:46:20.783Z,5.00
2023-08-15T05:48:48.534Z,4.97
2023-08-15T05:51:16.340Z,4.18
2023-08-15T05:53:44.100Z,4.85
2023-08-15T05:56:11.868Z,5.07
2023-08-15T05:58:41.014Z,5.45
2023-08-15T06:01:09.520Z,4.75
2023-08-15T06:03:52.093Z,4.90
2023-08-15T06:06:21.056Z,4.95
2023-08-15T06:08:49.363Z,4.93
2023-08-15T06:11:17.309Z,5.63
2023-08-15T06:13:46.371Z,4.53
2023-08-15T06:16:14.287Z,4.90
2023-08-15T06:18:42.059Z,5.10
2023-08-15T06:21:09.835Z,4.13
2023-08-15T06:23:37.547Z,4.80
2023-08-15T06:26:05.332Z,4.97
2023-08-15T06:28:33.126Z,5.05
2023-08-15T06:31:02.224Z,5.10
2023-08-15T06:33:30.019Z,5.93
2023-08-15T06:35:57.755Z,5.13
2023-08-15T06:38:26.519Z,4.47
2023-08-15T06:40:54.361Z,5.00
2023-08-15T06:43:22.129Z,5.13
2023-08-15T06:45:50.081Z,5.05
2023-08-15T06:48:19.239Z,4.93
2023-08-15T06:50:47.703Z,4.50
2023-08-15T06:53:15.571Z,4.30
2023-08-15T06:55:43.342Z,4.40
2023-08-15T06:58:11.149Z,4.28
2023-08-15T07:00:38.956Z,5.05
2023-08-15T07:03:07.167Z,4.90
2023-08-15T07:05:36.665Z,4.90
2023-08-15T07:08:05.299Z,4.82
2023-08-15T07:10:33.970Z,4.53
2023-08-15T07:13:01.775Z,4.80
2023-08-15T07:15:29.691Z,4.70
2023-08-15T07:17:57.619Z,4.85
2023-08-15T07:20:25.440Z,5.10
2023-08-15T07:22:56.319Z,4.93
2023-08-15T07:25:24.714Z,5.20
2023-08-15T07:27:52.479Z,5.63
2023-08-15T07:30:20.261Z,6.22
2023-08-15T07:32:48.036Z,5.60
2023-08-15T07:35:15.869Z,5.63
2023-08-15T07:37:43.593Z,5.50
2023-08-15T07:40:21.808Z,5.50
2023-08-15T07:42:50.827Z,5.72
2023-08-15T07:45:18.690Z,5.80
2023-08-15T07:47:49.250Z,6.25
2023-08-15T07:50:18.433Z,5.75
2023-08-15T07:52:47.086Z,5.63
2023-08-15T07:55:17.088Z,6.00
2023-08-15T07:57:45.907Z,6.25
2023-08-15T08:00:15.412Z,6.35
2023-08-15T08:02:45.216Z,5.32
2023-08-15T08:05:15.529Z,5.78
2023-08-15T08:07:44.635Z,6.45
2023-08-15T08:10:12.935Z,6.28
2023-08-15T08:12:42.004Z,6.75
2023-08-15T08:15:10.586Z,6.45
2023-08-15T08:17:38.523Z,6.38
2023-08-15T08:20:13.140Z,5.75
2023-08-15T08:22:41.242Z,6.45
2023-08-15T08:25:17.260Z,6.68
2023-08-15T08:27:46.836Z,6.47
2023-08-15T08:30:15.622Z,6.18
2023-08-15T08:32:43.548Z,6.45
2023-08-15T08:35:12.227Z,6.55
2023-08-15T08:37:40.053Z,6.90
2023-08-15T08:40:09.657Z,7.10
2023-08-15T08:42:37.738Z,7.28
2023-08-15T08:45:10.088Z,6.35
2023-08-15T08:47:39.536Z,7.07
2023-08-15T08:50:11.132Z,6.82
2023-08-15T08:52:41.548Z,7.25
2023-08-15T08:55:10.136Z,7.10
2023-08-15T08:57:38.452Z,7.00
2023-08-15T09:00:10.607Z,7.07
2023-08-15T09:02:38.503Z,7.28
2023-08-15T09:05:08.722Z,6.80
2023-08-15T09:07:36.957Z,6.95
2023-08-15T09:10:07.066Z,7.05
2023-08-15T09:12:36.118Z,6.68
2023-08-15T09:15:07.826Z,6.88
2023-08-15T09:17:35.601Z,6.45
2023-08-15T09:20:11.755Z,6.03
2023-08-15T09:22:42.247Z,6.22
2023-08-15T09:25:11.229Z,5.30
2023-08-15T09:27:39.675Z,5.60
2023-08-15T09:30:13.828Z,5.60
2023-08-15T09:32:42.142Z,5.63
2023-08-15T09:35:11.178Z,5.43
2023-08-15T09:37:42.765Z,5.75
2023-08-15T09:40:13.956Z,5.25
2023-08-15T09:42:42.404Z,5.20
2023-08-15T09:45:13.134Z,5.15
2023-08-15T09:47:41.680Z,6.03
2023-08-15T09:50:11.975Z,5.50
2023-08-15T09:52:42.049Z,5.78
2023-08-15T09:55:11.718Z,5.85
2023-08-15T09:57:40.201Z,5.28
2023-08-15T10:00:13.366Z,5.15
2023-08-15T10:02:44.963Z,5.78
2023-08-15T10:05:14.192Z,5.90
2023-08-15T10:07:43.286Z,5.90
2023-08-15T10:10:11.929Z,5.90
2023-08-15T10:12:41.973Z,5.75
2023-08-15T10:15:11.960Z,6.00
2023-08-15T10:17:40.429Z,6.35
2023-08-15T10:20:12.668Z,6.63
2023-08-15T10:22:41.567Z,5.80
2023-08-15T10:25:33.961Z,6.40
2023-08-15T10:28:04.973Z,6.05
2023-08-15T10:30:35.173Z,6.00
2023-08-15T10:33:13.990Z,5.68
2023-08-15T10:35:51.029Z,6.43
2023-08-15T10:38:21.410Z,5.80
2023-08-15T10:40:49.859Z,6.07
2023-08-15T10:43:17.911Z,6.20
2023-08-15T10:45:47.188Z,5.90
2023-08-15T10:48:15.479Z,5.95
2023-08-15T10:50:49.771Z,6.85
2023-08-15T10:53:19.035Z,6.47
2023-08-15T10:55:48.654Z,7.47
2023-08-15T10:58:18.420Z,6.10
2023-08-15T11:00:46.296Z,6.30
2023-08-15T11:03:14.159Z,6.53
2023-08-15T11:05:41.960Z,7.05
2023-08-15T11:08:19.455Z,6.53
2023-08-15T11:10:49.817Z,7.22
2023-08-15T11:13:18.522Z,6.80
2023-08-15T11:15:47.853Z,6.75
2023-08-15T11:18:21.937Z,6.88
2023-08-15T11:20:49.885Z,6.30
2023-08-15T11:23:20.182Z,6.10
2023-08-15T11:25:47.920Z,6.72
2023-08-15T11:28:15.664Z,6.82
2023-08-15T11:30:43.438Z,7.25
2023-08-15T11:33:11.880Z,6.88
2023-08-15T11:35:39.981Z,6.43
2023-08-15T11:38:12.285Z,7.18
2023-08-15T11:40:41.340Z,7.20
2023-08-15T11:43:09.164Z,7.10
2023-08-15T11:45:37.623Z,7.10
2023-08-15T11:48:06.641Z,7.18
2023-08-15T11:50:44.076Z,7.35
2023-08-15T11:53:14.014Z,7.97
2023-08-15T11:55:43.627Z,7.28
2023-08-15T11:58:27.623Z,7.07
2023-08-15T12:00:56.512Z,7.40
2023-08-15T12:03:26.714Z,7.78
2023-08-15T12:05:55.693Z,7.00
2023-08-15T12:08:25.326Z,6.72
2023-08-15T12:10:55.018Z,7.25
2023-08-15T12:13:31.316Z,7.20
2023-08-15T12:15:59.296Z,6.60
2023-08-15T12:18:27.139Z,7.53
2023-08-15T12:20:55.087Z,7.63
2023-08-15T12:23:28.722Z,7.28
2023-08-15T12:25:58.537Z,7.40
2023-08-15T12:28:28.972Z,6.93
2023-08-15T12:30:57.626Z,6.90
2023-08-15T12:35:56.023Z,6.80
2023-08-15T12:38:24.260Z,6.78
2023-08-15T12:40:52.112Z,7.07
2023-08-15T12:43:21.365Z,6.63
2023-08-15T12:45:49.958Z,7.18
2023-08-15T12:48:17.773Z,6.18
2023-08-15T12:50:45.610Z,6.25
2023-08-15T12:53:14.009Z,6.20
2023-08-15T12:55:41.860Z,6.43
2023-08-15T12:58:10.166Z,7.35
2023-08-15T13:00:41.854Z,6.32
2023-08-15T13:03:10.588Z,5.97
2023-08-15T13:05:38.553Z,6.40
2023-08-15T13:08:06.507Z,6.55
2023-08-15T13:10:34.305Z,6.50
2023-08-15T13:13:02.043Z,6.57
2023-08-15T13:15:29.782Z,5.63
2023-08-15T13:17:58.908Z,6.53
2023-08-15T13:20:26.940Z,5.90
2023-08-15T13:22:55.540Z,6.85
2023-08-15T13:25:23.317Z,6.18
2023-08-15T13:27:51.160Z,6.80
2023-08-15T13:30:18.953Z,5.88
2023-08-15T13:32:46.764Z,6.18
2023-08-15T13:35:15.840Z,6.00
2023-08-15T13:37:43.806Z,6.13
2023-08-15T13:40:12.714Z,5.07
2023-08-15T13:42:41.707Z,5.78
2023-08-15T13:45:10.650Z,5.75
2023-08-15T13:47:38.849Z,5.95
2023-08-15T13:50:08.406Z,6.28
2023-08-15T13:52:38.385Z,6.40
2023-08-15T13:55:07.517Z,6.57
2023-08-15T13:57:35.304Z,5.75
2023-08-15T14:00:04.552Z,5.45
2023-08-15T14:02:35.327Z,4.95
2023-08-15T14:05:04.979Z,4.88
2023-08-15T14:07:33.826Z,4.78
2023-08-15T14:10:04.203Z,5.03
2023-08-15T14:12:32.069Z,5.00
2023-08-15T14:14:59.812Z,4.43
2023-08-15T14:17:27.627Z,5.25
2023-08-15T14:19:55.399Z,4.80
2023-08-15T14:22:23.344Z,4.85
2023-08-15T14:24:51.356Z,4.70
2023-08-15T14:27:21.018Z,4.40
2023-08-15T14:29:49.876Z,4.70
2023-08-15T14:32:17.812Z,4.82
2023-08-15T14:34:45.663Z,4.95
2023-08-15T14:37:13.435Z,4.40
2023-08-15T14:39:41.206Z,4.45
2023-08-15T14:42:09.019Z,4.18
2023-08-15T14:44:38.183Z,4.85
2023-08-15T14:47:06.197Z,3.90
2023-08-15T14:49:34.123Z,4.82
2023-08-15T14:52:04.424Z,4.75
2023-08-15T14:54:32.333Z,3.92
2023-08-15T14:57:00.418Z,4.18
2023-08-15T14:59:28.158Z,4.03
2023-08-15T15:01:58.932Z,3.47
2023-08-15T15:04:26.872Z,3.40
2023-08-15T15:06:54.620Z,3.60
2023-08-15T15:09:22.506Z,3.67
2023-08-15T15:11:50.402Z,3.40
2023-08-15T15:14:18.158Z,3.25
2023-08-15T15:16:47.320Z,3.05
2023-08-15T15:19:16.422Z,3.72
2023-08-15T15:21:44.233Z,3.20
2023-08-15T15:24:12.000Z,3.60
2023-08-15T15:26:39.765Z,3.47
2023-08-15T15:29:07.471Z,3.30
2023-08-15T15:31:35.282Z,3.92
2023-08-15T15:34:03.064Z,3.30
2023-08-15T15:36:32.393Z,3.10
2023-08-15T15:39:00.167Z,3.10
2023-08-15T15:41:27.911Z,3.63
2023-08-15T15:43:55.647Z,3.20
2023-08-15T15:46:23.412Z,3.13
2023-08-15T15:48:51.275Z,3.40
2023-08-15T15:51:19.056Z,3.28
2023-08-15T15:53:48.219Z,3.28
2023-08-15T15:56:16.016Z,3.20
2023-08-15T15:58:43.857Z,3.08
2023-08-15T16:01:11.630Z,3.50
2023-08-15T16:03:39.707Z,3.40
2023-08-15T16:06:07.463Z,3.47
2023-08-15T16:08:35.311Z,3.20
2023-08-15T16:11:04.421Z,3.47
2023-08-15T16:13:32.294Z,3.67
2023-08-15T16:16:00.156Z,3.22
2023-08-15T16:18:28.283Z,3.30
2023-08-15T16:20:56.073Z,3.25
2023-08-15T16:23:23.996Z,4.03
2023-08-15T16:25:51.830Z,4.55
2023-08-15T16:28:20.884Z,4.47
2023-08-15T16:30:48.617Z,3.60
2023-08-15T16:33:16.671Z,4.07
2023-08-15T16:35:44.455Z,4.05
2023-08-15T16:38:13.600Z,3.40
2023-08-15T16:40:43.608Z,3.65
2023-08-15T16:43:13.104Z,3.63
2023-08-15T16:45:42.534Z,3.70
2023-08-15T16:48:11.052Z,4.20
2023-08-15T16:50:39.539Z,3.50
2023-08-15T16:53:07.834Z,3.50
2023-08-15T16:55:35.760Z,3.53
2023-08-15T16:58:03.666Z,3.78
2023-08-15T17:00:31.741Z,3.85
2023-08-15T17:03:01.034Z,3.60
2023-08-15T17:05:29.011Z,4.10
2023-08-15T17:07:57.012Z,3.72
2023-08-15T17:10:25.285Z,4.45
2023-08-15T17:12:53.262Z,4.05
2023-08-15T17:15:21.090Z,4.63
2023-08-15T17:17:48.967Z,4.18
2023-08-15T17:20:18.335Z,4.20
2023-08-15T17:22:46.632Z,4.05
2023-08-15T17:25:14.440Z,5.38
2023-08-15T17:27:42.354Z,4.18
2023-08-15T17:30:11.378Z,4.60
2023-08-15T17:32:39.385Z,5.18
2023-08-15T17:35:08.307Z,4.50
2023-08-15T17:37:37.429Z,4.57
2023-08-15T17:40:06.138Z,4.65
2023-08-15T17:42:34.171Z,4.72
2023-08-15T17:45:01.974Z,5.38
2023-08-15T17:47:29.827Z,4.97
2023-08-15T17:49:57.700Z,4.80
2023-08-15T17:52:25.481Z,5.00
2023-08-15T17:54:54.702Z,5.00
2023-08-15T17:57:22.651Z,5.35
2023-08-15T17:59:50.883Z,5.13
2023-08-15T18:02:18.690Z,5.47
2023-08-15T18:04:46.556Z,5.72
2023-08-15T18:07:14.640Z,4.95
2023-08-15T18:09:42.526Z,5.25
2023-08-15T18:12:11.718Z,5.70
2023-08-15T18:14:41.665Z,5.03
2023-08-15T18:17:09.615Z,5.47
2023-08-15T18:19:37.403Z,5.35
2023-08-15T18:24:33.577Z,5.45
2023-08-15T18:27:03.111Z,5.90
2023-08-15T18:29:32.247Z,5.55
2023-08-15T18:32:00.222Z,5.95
2023-08-15T18:34:28.101Z,5.70
2023-08-15T18:36:56.056Z,5.38
2023-08-15T18:39:24.025Z,5.50
2023-08-15T18:41:51.846Z,6.00
2023-08-15T18:44:19.816Z,6.40
2023-08-15T18:46:51.417Z,6.22
2023-08-15T18:49:19.812Z,6.05
2023-08-15T18:51:47.745Z,6.18
2023-08-15T18:54:15.705Z,5.50
2023-08-15T18:56:43.602Z,5.85
2023-08-15T18:59:11.442Z,5.28
2023-08-15T19:01:39.577Z,6.20
2023-08-15T19:04:08.854Z,6.85
2023-08-15T19:06:36.672Z,5.60
2023-08-15T19:09:04.849Z,5.72
2023-08-15T19:11:32.627Z,5.93
2023-08-15T19:14:00.422Z,5.70
2023-08-15T19:16:28.315Z,6.28
2023-08-15T19:19:00.958Z,6.13
2023-08-15T19:21:30.116Z,6.15
2023-08-15T19:23:58.032Z,5.85
2023-08-15T19:26:25.813Z,6.40
2023-08-15T19:28:55.389Z,6.40
2023-08-15T19:31:23.531Z,6.32
2023-08-15T19:33:51.422Z,6.30
2023-08-15T19:36:19.525Z,6.32
2023-08-15T19:38:48.840Z,6.20
2023-08-15T19:41:17.612Z,5.72
2023-08-15T19:43:45.409Z,5.72
2023-08-15T19:46:13.237Z,6.28
2023-08-15T19:48:41.043Z,6.10
2023-08-15T19:51:08.823Z,6.32
2023-08-15T19:53:36.604Z,6.40
2023-08-15T19:56:05.941Z,6.68
2023-08-15T19:58:33.730Z,6.00
2023-08-15T20:01:01.594Z,6.47
2023-08-15T20:03:29.347Z,6.40
2023-08-15T20:05:57.431Z,6.47
2023-08-15T20:08:25.430Z,5.82
2023-08-15T20:10:53.741Z,5.75
2023-08-15T20:13:23.335Z,6.13
2023-08-15T20:15:54.648Z,5.70
2023-08-15T20:18:22.488Z,6.47
2023-08-15T20:20:52.884Z,6.40
2023-08-15T20:23:20.702Z,6.38
2023-08-15T20:25:48.734Z,5.85
2023-08-15T20:28:18.441Z,4.50
2023-08-15T20:30:47.607Z,4.60
2023-08-15T20:33:15.645Z,4.80
2023-08-15T20:35:43.498Z,4.43
2023-08-15T20:38:11.339Z,3.90
2023-08-15T20:40:39.520Z,4.05
2023-08-15T20:43:07.309Z,3.30
2023-08-15T20:45:35.069Z,2.80
2023-08-15T20:48:04.267Z,3.08
2023-08-15T20:50:32.049Z,3.00
2023-08-15T20:52:59.858Z,2.38
2023-08-15T20:55:28.652Z,2.53
2023-08-15T20:57:56.440Z,2.30
2023-08-15T21:00:24.307Z,2.45
2023-08-15T21:02:52.140Z,2.10
2023-08-15T21:05:21.274Z,2.28
2023-08-15T21:07:49.071Z,2.00
2023-08-15T21:10:17.081Z,2.28
2023-08-15T21:12:44.834Z,2.38
2023-08-15T21:15:12.589Z,2.35
2023-08-15T21:17:40.335Z,2.17
2023-08-15T21:20:09.528Z,1.83
2023-08-15T21:22:38.685Z,1.90
2023-08-15T21:25:07.328Z,2.10
2023-08-15T21:27:35.102Z,1.80
2023-08-15T21:30:02.875Z,1.95
2023-08-15T21:32:30.643Z,1.67
2023-08-15T21:34:59.001Z,2.20
2023-08-15T21:37:26.745Z,2.05
2023-08-15T21:39:55.822Z,2.22
2023-08-15T21:42:24.323Z,1.90
2023-08-15T21:44:52.258Z,1.98
2023-08-15T21:49:47.938Z,2.45
2023-08-15T21:52:16.574Z,2.22
2023-08-15T21:54:44.297Z,2.22
2023-08-15T21:57:13.394Z,2.40
2023-08-15T21:59:41.151Z,2.60
2023-08-15T22:02:09.048Z,2.17
2023-08-15T22:04:37.027Z,2.80
2023-08-15T22:07:05.077Z,2.53
2023-08-15T22:09:32.900Z,2.72
2023-08-15T22:12:00.672Z,2.90
2023-08-15T22:14:29.733Z,3.17
2023-08-15T22:16:57.578Z,2.95
2023-08-15T22:19:25.433Z,3.05
2023-08-15T22:21:53.204Z,2.90
2023-08-15T22:24:20.973Z,2.95
2023-08-15T22:26:49.683Z,3.17
2023-08-15T22:29:17.531Z,3.13
2023-08-15T22:31:46.669Z,3.42
2023-08-15T22:34:16.026Z,3.47
2023-08-15T22:36:45.310Z,3.08
2023-08-15T22:39:13.208Z,3.15
2023-08-15T22:41:41.441Z,3.22
2023-08-15T22:44:10.278Z,3.72
2023-08-15T22:46:38.087Z,3.35
2023-08-15T22:49:07.243Z,3.40
2023-08-15T22:51:34.973Z,3.50
2023-08-15T22:54:02.731Z,3.50
2023-08-15T22:56:30.478Z,3.78
2023-08-15T22:58:58.235Z,3.42
2023-08-15T23:01:26.045Z,3.80
2023-08-15T23:03:53.825Z,3.70
2023-08-15T23:06:22.934Z,3.85
2023-08-15T23:08:50.706Z,3.67
2023-08-15T23:11:19.349Z,3.30
2023-08-15T23:13:47.084Z,3.95
2023-08-15T23:16:14.911Z,3.90
2023-08-15T23:18:42.677Z,3.72
2023-08-15T23:21:10.472Z,3.90
2023-08-15T23:23:39.610Z,3.90
2023-08-15T23:26:07.395Z,3.22
2023-08-15T23:28:35.127Z,3.67
2023-08-15T23:31:02.938Z,3.70
2023-08-15T23:33:30.781Z,3.75
2023-08-15T23:35:58.553Z,3.58
2023-08-15T23:38:26.302Z,3.95
2023-08-15T23:40:55.446Z,3.70
2023-08-15T23:43:23.441Z,3.60
2023-08-15T23:45:51.209Z,3.63
2023-08-15T23:48:18.956Z,3.70
2023-08-15T23:50:47.556Z,4.40
2023-08-15T23:53:15.471Z,3.83
2023-08-15T23:55:43.218Z,3.92
2023-08-15T23:58:12.319Z,3.45
